Time;durP1;ratioP1;P1;durP2;ratioP2;P2;SDS_P1;SDS_P2;PMS_P1;PMS_P2;Temp;Humidity;BMP_temperature;BMP_pressure;BME280_temperature;BME280_humidity;BME280_pressure;Samples;Min_cycle;Max_cycle;Signal;HPM_P1;HPM_P2
2021/06/19 00:01:20;;;;;;;9.33;8.05;;;;;;;22.43;51.46;100508.39;127978;1098;23114;-78
2021/06/19 00:03:50;;;;;;;11.08;8.53;;;;;;;22.40;51.41;100506.99;127973;1098;22527;-78
2021/06/19 00:06:21;;;;;;;12.55;8.40;;;;;;;22.40;50.95;100508.88;127570;1101;22423;-79
2021/06/19 00:08:51;;;;;;;11.18;8.83;;;;;;;22.36;51.35;100505.01;127581;1101;24566;-79
2021/06/19 00:11:20;;;;;;;9.25;8.35;;;;;;;22.30;51.20;100510.31;127547;1101;22436;-79
2021/06/19 00:13:50;;;;;;;11.10;8.33;;;;;;;22.26;51.46;100500.28;127553;1101;22872;-79
2021/06/19 00:16:22;;;;;;;8.77;7.87;;;;;;;22.22;51.80;100505.30;127151;1104;22893;-78
2021/06/19 00:18:52;;;;;;;10.60;9.00;;;;;;;22.17;51.92;100499.03;127455;1101;22428;-78
2021/06/19 00:21:22;;;;;;;10.65;9.03;;;;;;;22.12;51.82;100507.78;127523;1101;22416;-77
2021/06/19 00:23:52;;;;;;;10.73;8.38;;;;;;;22.09;52.21;100508.25;127483;1102;22410;-78
2021/06/19 00:26:22;;;;;;;9.13;8.33;;;;;;;22.05;52.30;100499.03;127553;1101;22512;-80
2021/06/19 00:28:51;;;;;;;10.28;8.48;;;;;;;22.00;52.68;100507.84;127524;1101;22391;-77
2021/06/19 00:31:21;;;;;;;9.08;8.13;;;;;;;21.99;52.38;100508.91;127536;1101;23072;-78
2021/06/19 00:33:51;;;;;;;10.03;9.03;;;;;;;21.97;52.75;100511.00;127068;1101;22459;-77
2021/06/19 00:36:21;;;;;;;9.20;8.30;;;;;;;21.94;52.68;100505.28;127455;1101;22430;-78
2021/06/19 00:38:51;;;;;;;11.05;9.78;;;;;;;21.90;52.85;100504.14;127492;1101;22526;-79
2021/06/19 00:41:23;;;;;;;11.30;8.63;;;;;;;21.85;53.22;100507.52;127485;1104;24326;-78
2021/06/19 00:43:52;;;;;;;;;;;;;;;21.75;52.98;100510.81;127421;1105;22507;-78
2021/06/19 00:46:22;;;;;;;13.13;9.03;;;;;;;21.69;53.53;100511.77;127421;1104;23161;-79
2021/06/19 00:48:55;;;;;;;9.80;8.43;;;;;;;21.68;53.64;100512.02;127207;1105;24555;-79
2021/06/19 00:51:25;;;;;;;9.80;8.75;;;;;;;21.68;54.04;100507.45;127874;1101;22522;-79
2021/06/19 00:53:55;;;;;;;9.55;8.63;;;;;;;21.68;53.59;100512.02;127620;1101;22462;-79
2021/06/19 00:56:26;;;;;;;10.33;8.95;;;;;;;21.66;53.77;100506.89;127426;1103;22751;-79
2021/06/19 00:58:56;;;;;;;10.65;8.53;;;;;;;21.64;53.88;100495.54;127588;1101;22426;-78
2021/06/19 01:01:26;;;;;;;10.05;9.03;;;;;;;21.63;53.83;100511.92;127594;1101;22404;-78
2021/06/19 01:03:56;;;;;;;9.23;8.40;;;;;;;21.60;54.00;100510.52;127927;1101;22678;-78
2021/06/19 01:06:26;;;;;;;13.87;8.70;;;;;;;21.58;54.33;100517.98;127937;1098;22426;-78
2021/06/19 01:08:56;;;;;;;12.68;8.33;;;;;;;21.57;54.42;100521.74;128025;1098;22993;-78
2021/06/19 01:11:27;;;;;;;11.18;9.03;;;;;;;21.55;54.32;100516.59;128020;1098;23161;-79
2021/06/19 01:13:58;;;;;;;12.13;8.13;;;;;;;21.52;54.44;100517.05;128014;1096;24284;-79
2021/06/19 01:16:31;;;;;;;11.30;8.75;;;;;;;21.49;54.99;100520.24;127997;1101;22404;-78
2021/06/19 01:19:03;;;;;;;16.37;8.63;;;;;;;21.48;55.21;100529.34;128001;1098;22397;-79
2021/06/19 01:21:32;;;;;;;10.80;8.50;;;;;;;21.48;55.52;100521.27;128282;1101;22407;-78
2021/06/19 01:24:02;;;;;;;10.03;8.70;;;;;;;21.51;55.12;100525.37;127986;1098;22486;-78
2021/06/19 01:26:32;;;;;;;9.63;8.70;;;;;;;21.50;55.52;100521.87;127965;1098;22406;-78
2021/06/19 01:29:02;;;;;;;9.80;8.60;;;;;;;21.48;55.31;100526.65;127975;1099;24244;-79
2021/06/19 01:31:32;;;;;;;10.65;8.60;;;;;;;21.48;54.89;100525.83;127948;1101;22406;-79
2021/06/19 01:34:02;;;;;;;10.55;8.70;;;;;;;21.42;55.26;100530.27;127750;1098;22412;-78
2021/06/19 01:36:33;;;;;;;11.40;9.08;;;;;;;21.40;55.58;100521.64;127972;1098;22401;-78
2021/06/19 01:39:03;;;;;;;16.55;8.90;;;;;;;21.37;55.58;100517.55;127973;1098;22469;-79
2021/06/19 01:41:33;;;;;;;10.80;9.00;;;;;;;21.33;55.47;100526.30;127970;1098;22426;-79
2021/06/19 01:44:13;;;;;;;10.73;9.08;;;;;;;21.28;56.02;100529.67;127940;1098;25223;-79
2021/06/19 01:46:43;;;;;;;11.35;8.88;;;;;;;21.25;56.18;100534.69;127955;1098;22542;-79
2021/06/19 01:49:13;;;;;;;12.47;9.40;;;;;;;21.24;56.49;100538.44;127975;1098;24545;-78
2021/06/19 01:51:42;;;;;;;11.03;9.38;;;;;;;21.25;56.87;100540.06;128034;1098;23750;-78
2021/06/19 01:54:13;;;;;;;11.55;8.58;;;;;;;21.26;56.62;100542.53;128039;1096;22388;-78
2021/06/19 01:56:43;;;;;;;12.73;9.03;;;;;;;21.27;56.54;100538.78;128237;1098;24557;-78
2021/06/19 01:59:12;;;;;;;10.38;8.35;;;;;;;21.30;56.66;100534.83;128254;1098;23336;-78
2021/06/19 02:01:44;;;;;;;10.70;9.05;;;;;;;21.30;56.70;100537.51;128208;1098;22423;-78
2021/06/19 02:04:14;;;;;;;12.45;8.93;;;;;;;21.29;56.86;100538.54;128217;1097;22397;-79
2021/06/19 02:06:46;;;;;;;9.90;8.47;;;;;;;21.27;56.32;100529.91;128228;1098;22412;-79
2021/06/19 02:09:16;;;;;;;11.28;8.38;;;;;;;21.28;56.79;100544.98;128273;1098;22407;-79
2021/06/19 02:11:46;;;;;;;10.28;8.53;;;;;;;21.24;57.26;100538.44;128266;1098;24557;-79
2021/06/19 02:14:16;;;;;;;11.25;8.28;;;;;;;21.24;57.17;100546.50;128508;1098;22404;-79
2021/06/19 02:16:46;;;;;;;12.33;8.95;;;;;;;21.22;57.51;100549.41;127922;1101;22405;-78
2021/06/19 02:19:15;;;;;;;14.90;8.75;;;;;;;21.24;57.31;100551.88;127982;1101;22449;-78
2021/06/19 02:21:45;;;;;;;9.23;8.30;;;;;;;21.24;57.22;100539.25;127969;1101;22942;-79
2021/06/19 02:24:15;;;;;;;11.45;8.90;;;;;;;21.25;57.41;100542.75;127946;1101;22408;-78
2021/06/19 02:26:45;;;;;;;12.15;10.03;;;;;;;21.23;57.54;100545.69;127937;1101;23255;-79
2021/06/19 02:29:14;;;;;;;12.23;9.65;;;;;;;21.23;57.71;100545.69;127907;1099;22570;-78
2021/06/19 02:31:44;;;;;;;14.33;9.58;;;;;;;21.23;57.29;100540.31;128212;1101;22413;-79
2021/06/19 02:34:14;;;;;;;15.43;9.15;;;;;;;21.20;57.53;100540.78;127978;1098;24000;-79
2021/06/19 02:36:44;;;;;;;15.23;9.98;;;;;;;21.22;57.57;100535.16;128271;1096;22423;-78
2021/06/19 02:39:14;;;;;;;12.88;10.33;;;;;;;21.24;57.55;100541.13;128231;1098;22409;-78
2021/06/19 02:41:44;;;;;;;13.90;9.50;;;;;;;21.25;57.92;100532.00;128007;1098;22434;-77
2021/06/19 02:44:13;;;;;;;9.13;8.15;;;;;;;21.26;57.62;100541.69;127948;1098;22989;-78
2021/06/19 02:46:43;;;;;;;17.45;9.65;;;;;;;21.24;58.18;100527.69;127980;1098;22393;-78
2021/06/19 02:49:13;;;;;;;11.38;9.00;;;;;;;21.21;57.88;100528.97;127983;1098;22420;-78
2021/06/19 02:51:43;;;;;;;11.35;9.93;;;;;;;21.19;57.81;100524.88;127955;1098;24553;-79
2021/06/19 02:54:13;;;;;;;11.48;8.55;;;;;;;21.17;57.87;100533.19;127938;1098;22401;-79
2021/06/19 02:56:42;;;;;;;11.40;9.83;;;;;;;21.14;57.96;100528.27;127969;1098;22567;-77
2021/06/19 02:59:12;;;;;;;12.63;9.65;;;;;;;21.14;58.04;100530.95;128023;1098;22507;-78
2021/06/19 03:01:42;;;;;;;12.45;8.60;;;;;;;21.14;58.25;100528.27;128286;1098;22391;-77
2021/06/19 03:04:15;;;;;;;13.68;10.53;;;;;;;21.17;58.44;100533.19;128274;1098;22392;-78
2021/06/19 03:06:45;;;;;;;10.10;8.70;;;;;;;21.22;58.70;100541.34;128236;1098;24540;-78
2021/06/19 03:09:14;;;;;;;13.58;9.45;;;;;;;21.28;58.71;100542.28;128025;1098;22404;-79
2021/06/19 03:11:45;;;;;;;11.08;8.70;;;;;;;21.34;58.39;100534.14;128295;1098;22454;-79
2021/06/19 03:14:16;;;;;;;14.75;13.25;;;;;;;21.38;58.08;100532.61;128238;1098;22490;-79
2021/06/19 03:16:46;;;;;;;15.03;13.28;;;;;;;21.38;58.13;100532.61;128246;1098;23190;-79
2021/06/19 03:19:15;;;;;;;13.43;9.15;;;;;;;21.42;58.02;100532.15;128490;1098;22351;-79
2021/06/19 03:21:46;;;;;;;10.80;9.70;;;;;;;21.47;58.22;100527.71;128271;1098;22392;-80
2021/06/19 03:24:16;;;;;;;11.53;10.03;;;;;;;21.47;57.89;100540.34;128001;1101;22693;-79
2021/06/19 03:26:46;;;;;;;21.28;14.08;;;;;;;21.45;58.03;100535.18;127605;1101;22427;-78
2021/06/19 03:29:16;;;;;;;17.35;12.35;;;;;;;21.44;57.83;100533.55;127562;1101;22406;-78
2021/06/19 03:31:47;;;;;;;11.83;10.05;;;;;;;21.45;58.14;100524.42;127544;1101;22417;-79
2021/06/19 03:34:17;;;;;;;10.60;9.60;;;;;;;21.49;58.33;100528.30;127791;1101;22068;-80
2021/06/19 03:36:47;;;;;;;13.28;9.70;;;;;;;21.56;58.44;100518.24;127493;1101;23453;-80
2021/06/19 03:39:17;;;;;;;16.28;9.58;;;;;;;21.60;57.99;100524.77;127527;1101;22436;-79
2021/06/19 03:41:47;;;;;;;10.00;8.80;;;;;;;21.63;58.30;100525.37;127523;1101;22440;-79
2021/06/19 03:44:17;;;;;;;9.83;8.90;;;;;;;21.68;58.27;100528.95;127586;1101;22431;-79
2021/06/19 03:46:47;;;;;;;14.45;8.23;;;;;;;21.72;58.31;100523.92;127593;1101;25075;-79
2021/06/19 03:49:18;;;;;;;11.38;8.28;;;;;;;21.74;58.36;100522.64;127629;1101;23160;-79
2021/06/19 03:51:48;;;;;;;11.33;8.15;;;;;;;21.78;57.97;100520.29;127575;1101;23364;-79
2021/06/19 03:54:18;;;;;;;11.67;8.10;;;;;;;21.78;57.87;100518.41;127586;1101;23183;-81
2021/06/19 03:56:48;;;;;;;12.03;8.87;;;;;;;21.81;57.64;100514.44;127490;1105;22421;-79
2021/06/19 03:59:18;;;;;;;10.27;8.27;;;;;;;21.81;57.75;100515.25;127225;1105;22569;-79
2021/06/19 04:01:48;;;;;;;11.95;8.80;;;;;;;21.88;58.03;100517.80;127771;1101;22395;-79
2021/06/19 04:04:18;;;;;;;9.45;7.70;;;;;;;21.96;58.00;100517.45;128213;1101;24225;-78
2021/06/19 04:06:48;;;;;;;9.35;8.08;;;;;;;22.06;58.02;100520.34;127620;1101;22507;-79
2021/06/19 04:09:18;;;;;;;10.80;8.98;;;;;;;22.16;57.80;100508.98;127585;1101;22465;-78
2021/06/19 04:11:48;;;;;;;9.38;7.58;;;;;;;22.27;57.43;100513.48;127564;1100;22389;-78
2021/06/19 04:14:18;;;;;;;13.25;8.95;;;;;;;22.36;57.53;100522.00;127553;1098;22421;-79
2021/06/19 04:16:48;;;;;;;11.73;8.05;;;;;;;22.40;56.98;100520.45;128262;1098;22413;-78
2021/06/19 04:19:21;;;;;;;11.43;7.53;;;;;;;22.42;56.84;100512.94;128348;1097;22347;-79
2021/06/19 04:21:51;;;;;;;9.98;7.30;;;;;;;22.46;56.75;100519.48;128093;1098;22369;-78
2021/06/19 04:24:21;;;;;;;9.53;8.20;;;;;;;22.52;56.69;100512.30;128293;1098;22456;-78
2021/06/19 04:26:51;;;;;;;10.85;6.98;;;;;;;22.58;56.49;100514.02;128280;1098;22411;-79
2021/06/19 04:29:21;;;;;;;11.93;7.88;;;;;;;22.64;56.16;100517.63;128099;1098;22403;-78
2021/06/19 04:31:50;;;;;;;10.78;7.30;;;;;;;22.72;56.59;100523.41;128293;1097;22479;-78
2021/06/19 04:34:23;;;;;;;12.83;7.63;;;;;;;22.83;56.30;100524.42;128223;1098;24540;-78
2021/06/19 04:36:54;;;;;;;14.73;8.05;;;;;;;22.93;55.98;100523.80;128206;1098;22388;-77
2021/06/19 04:39:24;;;;;;;9.05;7.15;;;;;;;23.01;55.58;100524.19;128206;1098;22393;-78
2021/06/19 04:42:00;;;;;;;11.70;7.33;;;;;;;23.11;55.36;100528.11;128169;1098;22393;-78
2021/06/19 04:47:34;;;;;;;9.40;8.30;;;;;;;23.21;55.23;100528.26;127950;1098;22405;-79
2021/06/19 04:50:05;;;;;;;;;;;;;;;23.26;55.28;100528.34;127990;1098;24534;-78
2021/06/19 04:52:42;;;;;;;8.83;7.55;;;;;;;23.32;54.99;100535.42;127563;1101;21272;-77
2021/06/19 04:55:18;;;;;;;10.18;7.33;;;;;;;23.45;54.75;100540.45;127942;1099;22475;-79
2021/06/19 04:57:56;;;;;;;10.13;7.65;;;;;;;23.57;54.67;100534.97;127937;1101;22405;-78
2021/06/19 05:00:27;;;;;;;9.13;7.40;;;;;;;23.69;54.77;100537.56;127977;1101;22468;-78
2021/06/19 05:03:00;;;;;;;8.00;6.80;;;;;;;23.83;53.59;100540.73;127825;1101;24548;-77
2021/06/19 05:05:33;;;;;;;7.83;6.90;;;;;;;23.94;53.47;100537.89;127958;1101;22391;-79
2021/06/19 05:08:06;;;;;;;10.35;5.98;;;;;;;24.05;52.98;100538.01;128320;1101;22414;-80
2021/06/19 05:10:38;;;;;;;11.15;6.08;;;;;;;24.14;52.68;100531.91;127950;1098;22415;-80
2021/06/19 05:13:08;;;;;;;11.83;6.00;;;;;;;24.28;52.51;100534.22;128011;1097;22384;-80
2021/06/19 05:15:38;;;;;;;8.38;6.18;;;;;;;24.41;51.76;100537.35;127969;1098;22441;-80
2021/06/19 05:18:08;;;;;;;7.33;6.45;;;;;;;24.55;52.07;100531.54;127942;1098;22396;-80
2021/06/19 05:20:37;;;;;;;8.73;6.23;;;;;;;24.70;51.55;100531.69;127636;1101;22396;-80
2021/06/19 05:23:10;;;;;;;11.85;6.35;;;;;;;24.85;51.06;100533.69;127577;1098;22382;-79
2021/06/19 05:25:40;;;;;;;9.43;6.23;;;;;;;25.01;50.94;100532.73;127959;1098;22401;-80
2021/06/19 05:28:10;;;;;;;8.33;7.43;;;;;;;25.17;50.35;100524.78;127964;1098;24701;-80
2021/06/19 05:30:39;;;;;;;11.10;6.40;;;;;;;25.34;49.83;100523.52;127982;1098;22404;-80
2021/06/19 05:33:09;;;;;;;8.50;6.63;;;;;;;25.53;49.70;100525.80;127580;1101;22419;-80
2021/06/19 05:35:39;;;;;;;6.70;5.85;;;;;;;25.76;49.45;100535.38;127555;1105;22433;-79
2021/06/19 05:38:09;;;;;;;6.38;5.35;;;;;;;26.04;48.91;100536.86;127545;1102;22432;-81
2021/06/19 05:40:38;;;;;;;9.18;6.08;;;;;;;26.31;48.52;100533.13;127552;1101;22599;-79
2021/06/19 05:43:11;;;;;;;6.83;5.43;;;;;;;26.61;47.82;100533.20;127675;1101;22414;-80
2021/06/19 05:45:41;;;;;;;8.60;5.80;;;;;;;26.99;47.23;100539.98;127984;1101;22411;-80
2021/06/19 05:48:11;;;;;;;6.98;5.60;;;;;;;27.34;46.42;100548.38;127579;1101;22418;-80
2021/06/19 05:50:41;;;;;;;6.75;4.90;;;;;;;27.69;45.80;100540.13;127564;1098;22411;-80
2021/06/19 05:53:10;;;;;;;6.28;5.20;;;;;;;28.08;44.89;100553.00;128022;1098;25054;-78
2021/06/19 05:55:40;;;;;;;10.38;5.00;;;;;;;28.36;44.01;100550.69;128193;1098;22390;-79
2021/06/19 05:58:10;;;;;;;7.83;6.03;;;;;;;28.68;43.58;100544.77;128292;1098;22389;-80
2021/06/19 06:00:40;;;;;;;7.98;5.00;;;;;;;29.06;42.97;100551.28;128225;1097;22465;-80
2021/06/19 06:03:09;;;;;;;12.90;7.95;;;;;;;29.43;42.16;100551.73;128266;1098;22388;-80
2021/06/19 06:05:39;;;;;;;6.90;4.73;;;;;;;29.81;40.99;100552.67;128260;1098;22413;-78
2021/06/19 06:08:09;;;;;;;9.13;5.70;;;;;;;30.15;40.39;100551.68;128264;1097;22413;-81
2021/06/19 06:10:41;;;;;;;6.43;4.93;;;;;;;30.41;39.27;100541.26;128227;1098;22654;-78
2021/06/19 06:13:14;;;;;;;5.48;4.13;;;;;;;30.69;39.02;100542.16;128274;1098;22398;-81
2021/06/19 06:15:44;;;;;;;6.05;4.40;;;;;;;31.03;38.57;100543.83;128400;1098;22386;-80
2021/06/19 06:18:14;;;;;;;6.60;4.23;;;;;;;31.31;37.73;100539.21;128191;1098;22397;-80
2021/06/19 06:20:44;;;;;;;;;;;;;;;31.53;36.87;100544.02;127953;1098;22558;-79
2021/06/19 06:23:13;;;;;;;7.08;4.83;;;;;;;31.71;36.10;100542.28;127987;1098;22390;-78
2021/06/19 06:25:43;;;;;;;7.63;4.10;;;;;;;31.96;35.54;100538.24;128002;1098;22401;-78
2021/06/19 06:28:13;;;;;;;5.90;4.43;;;;;;;32.10;34.80;100533.55;128026;1098;22415;-79
2021/06/19 06:30:43;;;;;;;5.95;4.25;;;;;;;32.25;34.77;100535.91;128328;1098;22395;-79
2021/06/19 06:33:13;;;;;;;5.60;3.90;;;;;;;32.43;34.09;100534.18;128307;1098;22494;-79
2021/06/19 06:35:43;;;;;;;6.43;3.80;;;;;;;32.60;33.45;100529.95;128023;1098;22415;-79
2021/06/19 06:38:13;;;;;;;5.38;4.35;;;;;;;32.74;33.08;100530.69;128204;1098;22382;-79
2021/06/19 06:40:43;;;;;;;6.47;3.77;;;;;;;33.01;33.02;100527.81;127980;1098;22398;-79
2021/06/19 06:43:12;;;;;;;6.18;4.20;;;;;;;33.14;32.40;100523.37;128023;1098;22413;-80
2021/06/19 06:45:42;;;;;;;;;;;;;;;33.26;32.12;100526.33;127960;1098;22395;-80
2021/06/19 06:48:12;;;;;;;6.63;3.75;;;;;;;33.43;31.59;100522.84;127951;1098;22413;-80
2021/06/19 06:50:42;;;;;;;7.05;3.20;;;;;;;33.67;31.61;100527.13;127986;1098;22426;-80
2021/06/19 06:53:11;;;;;;;8.23;3.83;;;;;;;33.88;30.60;100528.13;127968;1098;22410;-79
2021/06/19 06:55:41;;;;;;;9.43;3.70;;;;;;;34.22;30.40;100528.50;128004;1098;22404;-80
2021/06/19 06:58:11;;;;;;;7.70;3.10;;;;;;;34.19;29.54;100516.27;127985;1098;22599;-80
2021/06/19 07:00:41;;;;;;;5.00;2.75;;;;;;;34.17;29.22;100519.32;127989;1101;22495;-79
2021/06/19 07:03:11;;;;;;;3.98;3.20;;;;;;;34.18;28.89;100517.38;127942;1099;22401;-79
2021/06/19 07:05:41;;;;;;;4.30;2.88;;;;;;;34.04;28.21;100506.58;127977;1100;25091;-77
2021/06/19 07:08:10;;;;;;;5.23;3.17;;;;;;;33.84;28.41;100516.20;128244;1100;22397;-80
2021/06/19 07:10:40;;;;;;;4.25;3.30;;;;;;;33.82;28.65;100514.89;127978;1101;22417;-79
2021/06/19 07:13:10;;;;;;;6.55;2.70;;;;;;;33.79;28.53;100516.37;128002;1099;22567;-79
2021/06/19 07:15:42;;;;;;;3.35;2.70;;;;;;;34.00;28.36;100513.00;128006;1099;22402;-79
2021/06/19 07:18:12;;;;;;;5.03;2.88;;;;;;;34.17;28.25;100507.55;128004;1098;23157;-80
2021/06/19 07:20:42;;;;;;;3.37;2.37;;;;;;;34.35;27.28;100502.86;128238;1098;23414;-80
2021/06/19 07:23:12;;;;;;;4.20;2.60;;;;;;;34.32;27.12;100500.76;128083;1098;22408;-80
2021/06/19 07:25:43;;;;;;;5.33;3.40;;;;;;;34.35;26.90;100500.11;128233;1098;22379;-79
2021/06/19 07:28:13;;;;;;;7.15;2.70;;;;;;;34.42;26.84;100508.66;128242;1097;22414;-80
2021/06/19 07:30:43;;;;;;;3.23;2.10;;;;;;;34.26;25.85;100507.56;128278;1098;22375;-80
2021/06/19 07:33:13;;;;;;;9.03;2.47;;;;;;;34.00;25.52;100493.82;128274;1098;22397;-79
2021/06/19 07:35:42;;;;;;;7.30;2.23;;;;;;;34.11;25.65;100489.64;128235;1098;23156;-79
2021/06/19 07:38:12;;;;;;;4.90;2.05;;;;;;;34.23;24.84;100497.23;128001;1098;22477;-80
2021/06/19 07:40:42;;;;;;;7.20;2.38;;;;;;;34.03;24.58;100509.66;128020;1098;22394;-79
2021/06/19 07:43:12;;;;;;;4.93;2.58;;;;;;;33.80;25.46;100495.25;128295;1097;22411;-79
2021/06/19 07:45:41;;;;;;;3.25;2.18;;;;;;;33.91;24.88;100485.58;128006;1098;22507;-79
2021/06/19 07:48:11;;;;;;;5.20;2.47;;;;;;;34.07;25.06;100485.95;128035;1098;22449;-78
2021/06/19 07:50:41;;;;;;;3.00;2.20;;;;;;;34.33;25.16;100485.94;128039;1098;23393;-80
2021/06/19 07:53:11;;;;;;;11.40;2.50;;;;;;;34.55;25.31;100480.27;127959;1098;22414;-80
2021/06/19 07:55:41;;;;;;;5.13;2.50;;;;;;;34.71;24.83;100490.73;128042;1098;23229;-81
2021/06/19 07:58:11;;;;;;;5.20;2.67;;;;;;;34.84;24.93;100485.03;128240;1098;22386;-81
2021/06/19 08:00:42;;;;;;;5.18;2.35;;;;;;;35.01;24.36;100483.37;128188;1098;23972;-81
2021/06/19 08:03:12;;;;;;;4.30;1.90;;;;;;;35.10;23.94;100481.42;128261;1098;22415;-80
2021/06/19 08:05:41;;;;;;;7.28;2.45;;;;;;;35.26;24.21;100474.25;128044;1098;22357;-80
2021/06/19 08:08:11;;;;;;;4.83;2.50;;;;;;;35.50;24.32;100483.80;128079;1098;22433;-79
2021/06/19 08:10:44;;;;;;;4.10;2.80;;;;;;;35.75;23.82;100479.30;128278;1098;22693;-84
2021/06/19 08:13:14;;;;;;;;;;;;;;;35.82;23.37;100485.05;128310;1098;22394;-84
2021/06/19 08:15:44;;;;;;;5.33;2.60;;;;;;;35.84;23.81;100482.79;128346;1097;21272;-80
2021/06/19 08:18:13;;;;;;;5.28;2.60;;;;;;;35.86;23.72;100483.27;128217;1098;22410;-80
2021/06/19 08:20:43;;;;;;;2.75;2.30;;;;;;;36.03;23.66;100480.41;128002;1098;22401;-80
2021/06/19 08:23:16;;;;;;;4.03;2.40;;;;;;;36.18;24.10;100481.72;128027;1098;23413;-79
2021/06/19 08:25:46;;;;;;;5.03;2.55;;;;;;;36.39;23.93;100478.13;128033;1098;24531;-80
2021/06/19 08:28:16;;;;;;;6.63;2.30;;;;;;;36.24;23.57;100474.08;128084;1098;22445;-80
2021/06/19 08:30:48;;;;;;;6.63;2.40;;;;;;;35.90;24.17;100469.66;127716;1101;24259;-80
2021/06/19 08:33:18;;;;;;;3.00;2.20;;;;;;;35.79;24.47;100481.05;127636;1101;22806;-79
2021/06/19 08:35:49;;;;;;;7.48;2.00;;;;;;;35.72;24.60;100475.30;127656;1098;22417;-79
2021/06/19 08:38:19;;;;;;;3.03;2.10;;;;;;;35.61;24.68;100485.05;128077;1098;24365;-79
2021/06/19 08:40:50;;;;;;;4.03;2.60;;;;;;;35.41;24.67;100485.80;127679;1101;22401;-81
2021/06/19 08:43:20;;;;;;;2.93;2.20;;;;;;;35.23;24.36;100490.58;127625;1101;22441;-79
2021/06/19 08:45:52;;;;;;;3.63;2.20;;;;;;;35.09;24.39;100486.12;127638;1101;24580;-80
2021/06/19 08:48:22;;;;;;;5.48;2.15;;;;;;;35.00;24.68;100479.82;127176;1101;22455;-79
2021/06/19 08:50:54;;;;;;;6.53;2.55;;;;;;;34.93;24.80;100482.27;127583;1101;22430;-79
2021/06/19 08:53:23;;;;;;;4.15;2.20;;;;;;;34.93;24.37;100478.73;127592;1105;22422;-79
2021/06/19 08:56:14;;;;;;;7.20;2.68;;;;;;;34.77;24.87;100475.70;127280;1105;22424;-80
2021/06/19 08:58:45;;;;;;;4.73;2.13;;;;;;;34.77;24.60;100473.77;127249;1101;22428;-79
2021/06/19 09:01:16;;;;;;;5.10;2.40;;;;;;;34.89;24.78;100473.09;128004;1101;24549;-79
2021/06/19 09:03:46;;;;;;;5.80;2.35;;;;;;;35.20;24.86;100483.00;128065;1101;22398;-78
2021/06/19 09:06:27;;;;;;;4.08;2.10;;;;;;;35.35;24.58;100472.23;128019;1098;22395;-78
2021/06/19 09:09:07;;;;;;;4.80;2.05;;;;;;;35.28;23.95;100479.39;128094;1098;22403;-79
2021/06/19 09:11:38;;;;;;;6.83;2.48;;;;;;;34.91;24.44;100473.55;128170;1098;22395;-79
2021/06/19 09:14:23;;;;;;;5.48;2.23;;;;;;;34.76;24.51;100466.67;128228;1096;22904;-78
2021/06/19 09:17:07;;;;;;;5.53;3.03;;;;;;;34.65;24.73;100466.20;128007;1098;25068;-79
2021/06/19 09:19:43;;;;;;;3.03;1.90;;;;;;;34.83;24.55;100464.22;128041;1098;22467;-79
2021/06/19 09:22:15;;;;;;;5.15;1.98;;;;;;;34.88;24.18;100480.50;128046;1098;24530;-78
2021/06/19 09:24:45;;;;;;;5.85;2.35;;;;;;;34.71;24.72;100463.30;128218;1098;22396;-80
2021/06/19 09:27:45;;;;;;;4.60;1.93;;;;;;;34.77;24.20;100465.53;128067;1098;22398;-79
2021/06/19 09:30:21;;;;;;;6.37;2.07;;;;;;;34.89;23.83;100464.86;128002;1098;22393;-78
2021/06/19 09:32:56;;;;;;;9.60;2.53;;;;;;;35.17;23.60;100475.42;128077;1098;23328;-78
2021/06/19 09:35:39;;;;;;;8.55;2.15;;;;;;;35.21;23.17;100462.64;128206;1098;22448;-79
2021/06/19 09:38:15;;;;;;;5.93;1.95;;;;;;;35.07;23.55;100463.67;128299;1098;22388;-78
2021/06/19 09:40:47;;;;;;;4.80;2.08;;;;;;;35.00;23.84;100459.80;128259;1098;22402;-79
2021/06/19 09:43:28;;;;;;;3.73;1.95;;;;;;;34.94;23.45;100464.66;128279;1098;24530;-80
2021/06/19 09:46:10;;;;;;;4.50;2.00;;;;;;;34.77;23.72;100459.25;128256;1098;22395;-80
2021/06/19 09:48:46;;;;;;;5.97;2.50;;;;;;;34.59;23.69;100458.47;128341;1098;22388;-79
2021/06/19 09:51:16;;;;;;;3.28;2.18;;;;;;;34.47;24.12;100461.07;128291;1098;22389;-78
2021/06/19 09:54:03;;;;;;;4.10;2.07;;;;;;;34.51;24.25;100453.80;128285;1098;22362;-79
2021/06/19 09:57:02;;;;;;;3.05;2.18;;;;;;;34.64;24.36;100459.11;128268;1096;22491;-78
2021/06/19 09:59:38;;;;;;;5.73;2.20;;;;;;;34.74;24.45;100454.41;127973;1101;22410;-79
2021/06/19 10:02:19;;;;;;;6.68;2.33;;;;;;;34.95;23.85;100451.73;128174;1101;22386;-78
2021/06/19 10:04:54;;;;;;;9.65;2.30;;;;;;;35.02;24.29;100447.40;128022;1101;22420;-79
2021/06/19 10:07:27;;;;;;;5.00;2.03;;;;;;;35.23;24.05;100443.90;128024;1100;22388;-80
2021/06/19 10:09:59;;;;;;;5.73;2.80;;;;;;;35.39;23.81;100447.69;127992;1101;24604;-79
2021/06/19 10:12:36;;;;;;;4.13;1.90;;;;;;;35.35;23.41;100449.46;128023;1101;22870;-79
2021/06/19 10:15:13;;;;;;;3.98;2.18;;;;;;;34.96;23.83;100451.42;128051;1101;22393;-79
2021/06/19 10:17:46;;;;;;;5.20;2.13;;;;;;;34.62;24.13;100444.10;128069;1098;22387;-79
2021/06/19 10:20:17;;;;;;;5.68;2.33;;;;;;;34.49;24.16;100434.11;127990;1098;22392;-80
2021/06/19 10:22:48;;;;;;;8.40;2.08;;;;;;;34.41;24.27;100444.77;128113;1101;22428;-80
2021/06/19 10:25:21;;;;;;;4.23;1.93;;;;;;;34.38;24.40;100439.14;128021;1101;22388;-81
2021/06/19 10:27:52;;;;;;;6.57;2.40;;;;;;;34.37;24.31;100440.28;128011;1099;22398;-80
2021/06/19 10:30:25;;;;;;;7.88;2.58;;;;;;;34.27;24.38;100433.19;128004;1100;24527;-80
2021/06/19 10:33:31;;;;;;;3.10;2.00;;;;;;;34.10;24.49;100427.73;127663;1101;22406;-80
2021/06/19 10:36:08;;;;;;;5.90;2.60;;;;;;;34.12;24.11;100433.69;128024;1098;22374;-79
2021/06/19 10:38:53;;;;;;;7.78;2.20;;;;;;;33.92;24.71;100427.73;128030;1098;22572;-80
2021/06/19 10:41:51;;;;;;;4.75;2.30;;;;;;;33.84;24.72;100419.49;128073;1098;23265;-80
2021/06/19 10:44:59;;;;;;;7.95;1.98;;;;;;;33.77;24.79;100419.17;128066;1098;22385;-78
2021/06/19 10:47:51;;;;;;;6.48;2.93;;;;;;;33.77;25.17;100413.70;127669;1101;22886;-80
2021/06/19 10:50:26;;;;;;;3.05;1.85;;;;;;;33.78;25.26;100418.04;128010;1101;23166;-79
2021/06/19 10:53:15;;;;;;;4.38;2.15;;;;;;;33.76;25.18;100423.02;128040;1098;22381;-79
2021/06/19 10:55:54;;;;;;;6.80;2.50;;;;;;;33.78;24.99;100416.09;128043;1098;24530;-79
2021/06/19 10:58:33;;;;;;;4.43;2.03;;;;;;;33.58;25.40;100414.00;128095;1098;22364;-80
2021/06/19 11:01:05;;;;;;;4.95;2.25;;;;;;;33.38;25.70;100407.98;128020;1098;24289;-81
2021/06/19 11:03:48;;;;;;;11.65;2.68;;;;;;;33.26;25.51;100405.88;128047;1098;22847;-79
2021/06/19 11:06:33;;;;;;;3.58;2.15;;;;;;;33.15;26.13;100415.48;128035;1097;22380;-79
2021/06/19 11:09:15;;;;;;;8.50;2.73;;;;;;;33.13;26.26;100400.53;128075;1098;24601;-79
2021/06/19 11:12:02;;;;;;;6.00;2.18;;;;;;;33.07;26.21;100385.38;128037;1098;22378;-79
2021/06/19 11:15:08;;;;;;;5.68;2.15;;;;;;;33.00;26.54;100380.37;128226;1098;23575;-78
2021/06/19 11:17:41;;;;;;;4.83;3.28;;;;;;;32.92;26.01;100384.64;127651;1101;25068;-78
2021/06/19 11:20:32;;;;;;;4.45;2.40;;;;;;;32.89;25.81;100374.36;127656;1101;22408;-79
2021/06/19 11:23:03;;;;;;;;;;;;;;;32.77;26.08;100372.20;127324;1104;22404;-79
2021/06/19 11:26:01;;;;;;;5.23;2.40;;;;;;;32.74;26.51;100370.10;127676;1101;23103;-78
2021/06/19 11:28:34;;;;;;;3.97;1.70;;;;;;;32.71;26.02;100378.94;127644;1101;24537;-78
2021/06/19 11:31:17;;;;;;;6.15;2.28;;;;;;;32.56;26.01;100360.23;127575;1101;22413;-79
2021/06/19 11:33:49;;;;;;;12.05;2.73;;;;;;;32.46;26.28;100374.17;127617;1101;22427;-79
2021/06/19 11:36:19;;;;;;;6.63;2.95;;;;;;;32.42;26.06;100370.40;127616;1101;22401;-79
2021/06/19 11:38:59;;;;;;;7.90;4.38;;;;;;;32.40;26.01;100361.72;127665;1101;25065;-79
2021/06/19 11:41:37;;;;;;;5.73;2.40;;;;;;;32.44;26.52;100363.53;127676;1101;22420;-79